»·PEaware :: N15JG 39P-KSEA

N15JG :: 39P-KSEA

FLIGHT INFORMATION

Flight Status: Arrived
Operator: Privately registered:
United States
More flights under this callsign
Pilot: Anonymous 11047 (11047)
Aircraft: CESSNA 172 SKYHAWK
(C172)
More flights by this aircraft type
Origin: 39P Strom
United States
Destination: KSEA Seattle-Tacoma Intl
United States
More flights between these airports :: More routes between these airports
Route: 55S 21W
File this flight plan on PilotEdge
Remarks:
Altitude:
(Current/Filed)
5,000ft
Speed:
(Current/Filed)
110kts
Departed: 31-Dec-16 07:35 AM
Arrived: 31-Dec-16 09:16 AM
Distance/Time
Traveled:
53nm/1:41
Distance/Time
To Go:
Arrived

Flight Plot

Page will automatically refresh every two minutes.


Map Options




Map Legend


Flown Route
Filed Route
Departure Airport
Arrival Airport
Navaid (VOR, NDB)
Fix

Horizontal Profiles

Position Reports

Time Latitude Longitude Heading Altitude Ground
Speed
31-Dec-16 07:33 46.550487 -122.267824 210 939ft 1kts
31-Dec-16 07:34 46.550615 -122.269173 263 939ft 0kts
31-Dec-16 07:35 46.550167 -122.260702 92 1066ft 71kts
31-Dec-16 07:36 46.541697 -122.238567 141 1831ft 75kts
31-Dec-16 07:37 46.525209 -122.218622 132 2610ft 84kts
31-Dec-16 07:38 46.517668 -122.187182 90 3000ft 104kts
31-Dec-16 07:39 46.516600 -122.149301 92 3339ft 111kts
31-Dec-16 07:40 46.514919 -122.110894 89 3677ft 117kts
31-Dec-16 07:41 46.515954 -122.069357 88 3641ft 123kts
31-Dec-16 07:42 46.517461 -122.028508 82 3765ft 114kts
31-Dec-16 07:43 46.519197 -121.983916 89 3695ft 122kts
31-Dec-16 07:44 46.520791 -121.944144 89 3708ft 124kts
31-Dec-16 07:45 46.515305 -121.903850 118 3667ft 126kts
31-Dec-16 07:46 46.510300 -121.864496 63 3507ft 127kts
31-Dec-16 07:47 46.523451 -121.828277 56 3640ft 115kts
31-Dec-16 07:48 46.539555 -121.795727 56 3689ft 125kts
31-Dec-16 07:49 46.553547 -121.756518 67 3134ft 134kts
31-Dec-16 07:50 46.566670 -121.714323 62 2341ft 131kts
31-Dec-16 07:51 46.585729 -121.682397 40 1937ft 114kts
31-Dec-16 07:52 46.607077 -121.662280 33 1944ft 95kts
31-Dec-16 07:53 46.625121 -121.659508 300 2081ft 101kts
31-Dec-16 07:54 46.619020 -121.687315 205 1890ft 116kts
31-Dec-16 07:55 46.594532 -121.704035 194 1762ft 102kts
31-Dec-16 07:56 46.591880 -121.687165 16 1476ft 87kts
31-Dec-16 07:57 46.606717 -121.675832 29 1066ft 70kts
31-Dec-16 07:58 46.622741 -121.663048 352 1753ft 76kts
31-Dec-16 07:59 46.621996 -121.687891 197 2115ft 112kts
31-Dec-16 08:00 46.595806 -121.698722 200 1594ft 97kts
31-Dec-16 08:01 46.594642 -121.685603 23 1238ft 65kts
31-Dec-16 08:02 46.604225 -121.677914 28 1050ft 10kts
31-Dec-16 08:03 46.605334 -121.676631 4 1050ft 1kts
31-Dec-16 08:04 46.605362 -121.676650 306 1050ft 0kts
31-Dec-16 08:05 46.605362 -121.676650 306 1050ft 0kts
31-Dec-16 08:06 46.605362 -121.676650 306 1050ft 0kts
31-Dec-16 08:07 46.605362 -121.676650 306 1050ft 0kts
31-Dec-16 08:08 46.605362 -121.676650 306 1050ft 0kts
31-Dec-16 08:09 46.605362 -121.676650 306 1050ft 0kts
31-Dec-16 08:10 46.605362 -121.676650 306 1050ft 0kts
31-Dec-16 08:11 46.605362 -121.676650 306 1050ft 0kts
31-Dec-16 08:12 46.605362 -121.676650 306 1050ft 0kts
31-Dec-16 08:13 46.605362 -121.676650 306 1050ft 0kts
31-Dec-16 08:14 46.605362 -121.676650 306 1050ft 0kts
31-Dec-16 08:15 46.605362 -121.676650 306 1050ft 0kts
31-Dec-16 08:16 46.603926 -121.678054 209 1050ft 20kts
31-Dec-16 08:17 46.602415 -121.679366 32 1049ft 39kts
31-Dec-16 08:18 46.616549 -121.665163 46 1653ft 73kts
31-Dec-16 08:19 46.628079 -121.643490 48 2407ft 78kts
31-Dec-16 08:20 46.640859 -121.623307 36 3082ft 84kts
31-Dec-16 08:21 46.659569 -121.609897 19 3761ft 84kts
31-Dec-16 08:22 46.680465 -121.597428 26 4236ft 94kts
31-Dec-16 08:23 46.689697 -121.611099 231 4846ft 96kts
31-Dec-16 08:23 46.696748 -121.623844 42 5047ft 112kts
31-Dec-16 08:25 46.717423 -121.586900 23 5053ft 105kts
31-Dec-16 08:26 46.714998 -121.606225 107 5464ft 101kts
31-Dec-16 08:27 46.734169 -121.574182 35 4695ft 121kts
31-Dec-16 08:28 46.762282 -121.554331 11 3825ft 120kts
31-Dec-16 08:28 46.785542 -121.553914 353 3748ft 108kts
31-Dec-16 08:30 46.815590 -121.550862 17 4083ft 108kts
31-Dec-16 08:31 46.840546 -121.535558 23 4508ft 96kts
31-Dec-16 08:32 46.861878 -121.536482 333 5129ft 90kts
31-Dec-16 08:32 46.882301 -121.548653 348 4956ft 121kts
31-Dec-16 08:34 46.915203 -121.540265 17 4671ft 113kts
31-Dec-16 08:35 46.937810 -121.533112 5 4551ft 107kts
31-Dec-16 08:36 46.964986 -121.534217 351 4055ft 122kts
31-Dec-16 08:37 46.988892 -121.527691 21 3372ft 76kts
31-Dec-16 08:38 47.006239 -121.531660 344 2699ft 56kts
31-Dec-16 08:39 47.017164 -121.536347 341 2642ft 75kts
31-Dec-16 08:40 47.022882 -121.532745 182 3337ft 91kts
31-Dec-16 08:41 47.022913 -121.558947 318 4038ft 83kts
31-Dec-16 08:42 47.040734 -121.578134 320 4603ft 94kts
31-Dec-16 08:43 47.055970 -121.605784 310 5312ft 95kts
31-Dec-16 08:44 47.069628 -121.629797 315 5719ft 101kts
31-Dec-16 08:45 47.081838 -121.648812 313 6153ft 97kts
31-Dec-16 08:46 47.098295 -121.675793 315 6515ft 114kts
31-Dec-16 08:47 47.119250 -121.706517 317 6292ft 123kts
31-Dec-16 08:48 47.142382 -121.740183 316 6195ft 125kts
31-Dec-16 08:49 47.163423 -121.776285 310 6204ft 113kts
31-Dec-16 08:50 47.183010 -121.811212 313 6117ft 115kts
31-Dec-16 08:51 47.202689 -121.846483 309 6043ft 116kts
31-Dec-16 08:52 47.222254 -121.882027 309 5680ft 120kts
31-Dec-16 08:53 47.241160 -121.917083 308 5190ft 121kts
31-Dec-16 08:54 47.257852 -121.951398 308 4637ft 115kts
31-Dec-16 08:55 47.274041 -121.984260 307 4082ft 113kts
31-Dec-16 08:56 47.289358 -122.016555 313 3709ft 101kts
31-Dec-16 08:57 47.300945 -122.042314 316 3386ft 88kts
31-Dec-16 08:58 47.312249 -122.066108 315 3003ft 89kts
31-Dec-16 08:59 47.323562 -122.087531 320 2639ft 86kts
31-Dec-16 09:00 47.334568 -122.106354 320 2336ft 86kts
31-Dec-16 09:01 47.344495 -122.124698 318 2191ft 77kts
31-Dec-16 09:02 47.353665 -122.142298 319 2059ft 86kts
31-Dec-16 09:03 47.363924 -122.161276 319 2018ft 85kts
31-Dec-16 09:04 47.373981 -122.180133 319 1947ft 89kts
31-Dec-16 09:05 47.384536 -122.197980 319 1844ft 82kts
31-Dec-16 09:06 47.394488 -122.216563 317 1608ft 90kts
31-Dec-16 09:07 47.406460 -122.237289 320 1373ft 111kts
31-Dec-16 09:08 47.419405 -122.258322 320 1274ft 102kts
31-Dec-16 09:09 47.432727 -122.274720 343 1228ft 93kts
31-Dec-16 09:10 47.449116 -122.276722 355 1267ft 91kts
31-Dec-16 09:11 47.465536 -122.278409 354 1279ft 90kts
31-Dec-16 09:12 47.477950 -122.282664 301 1052ft 63kts
31-Dec-16 09:13 47.474483 -122.302635 283 808ft 71kts
31-Dec-16 09:14 47.467073 -122.317883 185 527ft 104kts
31-Dec-16 09:15 47.449650 -122.318120 176 372ft 66kts
31-Dec-16 09:16 47.440926 -122.317396 15 347ft 0kts
31-Dec-16 09:17 47.440981 -122.317435 326 347ft 1kts
31-Dec-16 09:18 47.440659 -122.316404 71 350ft 0kts
31-Dec-16 09:19 47.440660 -122.316400 36 350ft 0kts
31-Dec-16 09:20 47.440660 -122.316399 33 350ft 0kts
31-Dec-16 09:21 47.438411 -122.315224 354 345ft 0kts
31-Dec-16 09:22 47.438411 -122.315224 354 345ft 0kts
31-Dec-16 09:23 47.438411 -122.315224 354 345ft 0kts
31-Dec-16 09:24 47.438411 -122.315224 354 345ft 0kts
31-Dec-16 09:25 47.438411 -122.315224 354 345ft 0kts
31-Dec-16 09:26 47.438411 -122.315224 354 345ft 0kts

Navigation Log

Ident Type
Flight plan parsing failed, navigation log unavailable